Buoy 46762

sailwx.info

Track history (hours):
 
Tides and Currents Weather Stations Pressure Air Temp Water Temp Dewpoint Dewpoint Depression Visibility Wind Speed Wind Dir Waves Ship Positions

Drifting buoy 46762

Last reported at 2014-Nov-28 23:00 UTC. Time now 2014-Nov-29 01:14 UTC.
Position N 53°35' W 143°17'.

Barometer 1022.8 mb
Water temperature 9.0 ° C

Date/timePositionNaut miles runAvg speedWind from/ knotsBaromVisibWave heightAir tempDewpointWater temp
2014-Nov-28 23:00N 53°35' W 143°17'0 0.0 1022.8 9.0
2014-Nov-28 22:00N 53°35' W 143°17'1 1.4 1023.1 9.0
2014-Nov-28 21:00N 53°37' W 143°16'1 0.7 1023.3 9.0
2014-Nov-28 20:00N 53°37' W 143°15'0 0.0 1023.3 9.0
2014-Nov-28 19:00N 53°37' W 143°15'1 0.7 1023.1 9.0
2014-Nov-28 18:00N 53°37' W 143°16'0 0.0 1022.7 9.0
2014-Nov-28 17:00N 53°37' W 143°16'0 0.0 1022.5 9.0
2014-Nov-28 16:00N 53°37' W 143°16'1 0.7 1022.2 9.0
2014-Nov-28 15:00N 53°37' W 143°17'1 1.1 1022.2 9.0
2014-Nov-28 14:00N 53°37' W 143°15'1 1.2 1021.9 9.0
2014-Nov-28 13:00N 53°36' W 143°15'0 0.0 1022.0 9.0
2014-Nov-28 12:00N 53°36' W 143°15'1 0.7 1022.1 9.0
2014-Nov-28 11:00N 53°36' W 143°16'1 0.7 1022.1 9.0
2014-Nov-28 10:00N 53°36' W 143°15'0 0.0 1021.9 9.0
2014-Nov-28 09:00N 53°36' W 143°15'0 0.0 1021.9 9.0
2014-Nov-28 08:00N 53°36' W 143°15'0 0.0 1021.6 9.0
2014-Nov-28 07:00N 53°36' W 143°15'0 0.0 1021.2 9.0
2014-Nov-28 06:00N 53°36' W 143°15'1 0.7 1021.1 9.0
2014-Nov-28 05:00N 53°37' W 143°14'0 0.0 1020.6 9.0
2014-Nov-28 04:00N 53°37' W 143°14'1 1.4 1020.2 9.0
2014-Nov-28 03:00N 53°38' W 143°16'0 0.0 1019.6 9.0
2014-Nov-28 02:00N 53°38' W 143°16'0 0.0 1019.4 9.0
2014-Nov-28 01:00N 53°38' W 143°16'0 0.0 1019.3 9.1
2014-Nov-28 00:00N 53°38' W 143°16'1 1.4 1019.0 9.1
2014-Nov-27 23:00N 53°38' W 143°13'0 0.0 1019.0 9.1
2014-Nov-27 22:00N 53°38' W 143°13'0 0.0 1019.1 9.1
2014-Nov-27 21:00N 53°38' W 143°13'1 0.7 1019.1 9.1
2014-Nov-27 20:00N 53°37' W 143°13'0 0.0 1019.3 9.1
2014-Nov-27 19:00N 53°37' W 143°13'0 0.0 1019.0 9.1
2014-Nov-27 18:00N 53°37' W 143°13'1 0.6 1018.5 9.1
2014-Nov-27 17:00N 53°38' W 143°13'0 0.4 1018.0 9.1
2014-Nov-27 16:00N 53°38' W 143°13'1 0.7 1017.7 9.1
2014-Nov-27 15:00N 53°38' W 143°12'1 0.7 1017.8 9.1
2014-Nov-27 14:00N 53°38' W 143°13'2 1.8 1017.6 9.1
2014-Nov-27 13:00N 53°40' W 143°13'0 0.0 1017.5 9.0
2014-Nov-27 12:00N 53°40' W 143°13'0 0.0 1017.7 9.0
2014-Nov-27 11:00N 53°40' W 143°13'0 0.0 1017.6 9.0
2014-Nov-27 10:00N 53°40' W 143°13'0 0.0 1017.9 9.0
2014-Nov-27 08:00N 53°40' W 143°13'0 0.4 1018.1 9.0
2014-Nov-27 07:00N 53°40' W 143°13'0 0.0 1018.1 9.0
2014-Nov-27 06:00N 53°40' W 143°13'0 0.0 1017.9 9.0
2014-Nov-27 05:00N 53°40' W 143°13'0 0.0 1018.2 9.0
2014-Nov-27 04:00N 53°40' W 143°13'1 1.2 1018.1 9.0
2014-Nov-27 03:00N 53°39' W 143°11'0 0.0 1018.4 9.0
2014-Nov-27 02:00N 53°39' W 143°11'1 0.7 1018.2 9.0
2014-Nov-27 01:00N 53°38' W 143°11'1 0.5 1018.0 9.0
2014-Nov-27 00:00N 53°38' W 143°12'0 0.4 1018.2 9.1
2014-Nov-26 23:00N 53°38' W 143°11'1 0.7 1018.5 9.1
2014-Nov-26 22:00N 53°39' W 143°11'0 0.0 1018.9 9.1
2014-Nov-26 21:00N 53°39' W 143°11'1 0.5 1019.6 9.1
2014-Nov-26 18:00N 53°40' W 143°10'0 0.0 1019.9 9.1
2014-Nov-26 17:00N 53°40' W 143°10'1 0.7 1019.8 9.1
2014-Nov-26 16:00N 53°40' W 143°11'1 0.7 1020.0 9.1
2014-Nov-26 15:00N 53°40' W 143°10'5 4.9 1020.3 9.1
2014-Nov-26 14:00N 53°38' W 143°17'0 0.0 1020.4 9.1
2014-Nov-26 13:00N 53°38' W 143°17'0 0.0 1020.9 9.1
2014-Nov-26 12:00N 53°38' W 143°17'0 0.1 1021.6 9.1
2014-Nov-26 10:00N 53°38' W 143°17'5 1.8 1022.4 9.1
2014-Nov-26 07:00N 53°40' W 143°08'1 0.7 1022.6 9.2
2014-Nov-26 06:00N 53°40' W 143°07'0 0.3 1022.8 9.2
2014-Nov-26 05:00N 53°40' W 143°08'1 0.7 1022.5 9.2
2014-Nov-26 04:00N 53°40' W 143°08'0 0.0 1022.5 9.2
2014-Nov-26 03:00N 53°40' W 143°08'1 0.7 1022.9 9.2
2014-Nov-26 02:00N 53°40' W 143°09'0 0.0 1022.8 9.2
2014-Nov-26 01:00N 53°40' W 143°09'0 0.4 1022.9 9.2
2014-Nov-26 00:00N 53°40' W 143°10'0 0.2 1022.4 9.2
2014-Nov-25 23:00N 53°40' W 143°10'1 1.4 1022.3 9.2
2014-Nov-25 22:00N 53°39' W 143°09'0 0.4 1022.3 9.2
2014-Nov-25 21:00N 53°39' W 143°08'1 0.5 1022.1 9.2
2014-Nov-25 20:00N 53°39' W 143°08'1 1.2 1022.3 9.2
2014-Nov-25 19:00N 53°39' W 143°07'0 0.0 1021.7 9.2
2014-Nov-25 18:00N 53°39' W 143°07'0 0.2 1021.2 9.2
2014-Nov-25 17:00N 53°39' W 143°07'1 1.5 1020.6 9.2
2014-Nov-25 16:00N 53°39' W 143°04'0 0.1 1020.0 9.2
2014-Nov-25 15:00N 53°39' W 143°04'4 3.6 1019.7 9.2
2014-Nov-25 14:00N 53°41' W 143°09'0 0.4 1019.0 9.2
2014-Nov-25 13:00N 53°41' W 143°10'2 1.8 1018.7 9.2
2014-Nov-25 12:00N 53°40' W 143°10'0 0.1 1018.3 9.2
2014-Nov-25 11:00N 53°40' W 143°09'0 0.0 1017.9 9.2
2014-Nov-25 10:00N 53°40' W 143°09'0 0.0 1017.7 9.2
2014-Nov-25 07:00N 53°40' W 143°10'1 0.7 1016.7 9.2
2014-Nov-25 06:00N 53°39' W 143°09'1 0.6 1016.4 9.2
2014-Nov-25 05:00N 53°39' W 143°08'1 0.8 1015.8 9.2
2014-Nov-25 04:00N 53°40' W 143°08'8 7.8 1015.0 9.2
2014-Nov-25 03:00N 53°42' W 143°20'0 0.0 1014.7 9.2
2014-Nov-25 02:00N 53°42' W 143°20'0 0.0 1013.9 9.2
2014-Nov-25 01:00N 53°42' W 143°20'0 0.0 1013.2 9.2
2014-Nov-25 00:00N 53°42' W 143°20'0 0.0 1012.9 9.2
2014-Nov-24 23:00N 53°42' W 143°20'0 0.0 1012.9 9.2
2014-Nov-24 22:00N 53°42' W 143°20'0 0.0 1012.3 9.2
2014-Nov-24 21:00N 53°42' W 143°20'0 0.0 1012.0 9.2
2014-Nov-24 20:00N 53°42' W 143°20'5 4.8 1011.4 9.2
2014-Nov-24 19:00N 53°41' W 143°13'0 0.0 1010.9 9.2
2014-Nov-24 17:00N 53°41' W 143°13'0 0.4 1009.6 9.2
2014-Nov-24 16:00N 53°41' W 143°12'0 0.0 1008.6 9.2
2014-Nov-24 15:00N 53°41' W 143°12'1 0.7 1008.3 9.2
2014-Nov-24 14:00N 53°41' W 143°13'0 0.4 1008.2 9.2
2014-Nov-24 13:00N 53°41' W 143°13'1 1.3 1007.8 9.2
2014-Nov-24 12:00N 53°40' W 143°14'0 0.0 1007.7 9.2
2014-Nov-24 11:00N 53°40' W 143°14'0 0.0 1007.2 9.2
2014-Nov-24 10:00N 53°40' W 143°14'1 0.6 1006.9 9.2
2014-Nov-24 08:00N 53°41' W 143°13'0 0.0 1006.2 9.2
2014-Nov-24 07:00N 53°41' W 143°13'0 0.0 1005.8 9.2
2014-Nov-24 06:00N 53°41' W 143°13'0 0.2 1005.6 9.2
2014-Nov-24 05:00N 53°41' W 143°13'1 0.8 1005.2 9.2
2014-Nov-24 04:00N 53°41' W 143°14'0 0.4 1004.8 9.2
2014-Nov-24 03:00N 53°41' W 143°15'0 0.4 1004.3 9.2
2014-Nov-24 02:00N 53°41' W 143°16'0 0.0 1004.0 9.2
2014-Nov-24 01:00N 53°41' W 143°16'1 0.6 1003.4 9.2
2014-Nov-24 00:00N 53°41' W 143°16'1 1.3 1003.2 9.2
2014-Nov-23 23:00N 53°40' W 143°15'1 0.7 1003.2 9.2
2014-Nov-23 22:00N 53°40' W 143°14'1 1.2 1003.2 9.2
2014-Nov-23 21:00N 53°41' W 143°14'0 0.0 1003.3 9.2
2014-Nov-23 20:00N 53°41' W 143°14'0 0.4 1003.2 9.2
2014-Nov-23 19:00N 53°41' W 143°15'1 0.3 1002.9 9.2
2014-Nov-23 17:00N 53°41' W 143°16'0 0.0 1002.5 9.2
2014-Nov-23 16:00N 53°41' W 143°16'1 0.7 1002.2 9.2
2014-Nov-23 15:00N 53°41' W 143°16'2 1.9 1002.1 9.2
2014-Nov-23 14:00N 53°40' W 143°19'0 0.0 1002.0 9.2
2014-Nov-23 13:00N 53°40' W 143°19'0 0.0 1001.8 9.2
2014-Nov-23 12:00N 53°40' W 143°19'1 1.4 1001.6 9.2
2014-Nov-23 11:00N 53°39' W 143°17'1 1.4 1001.1 9.2
2014-Nov-23 10:00N 53°40' W 143°19'1 0.7 1000.7 9.2
2014-Nov-23 08:00N 53°39' W 143°17'2 0.9 999.4 9.2
2014-Nov-23 06:00N 53°39' W 143°14'1 1.3 997.9 9.2
2014-Nov-23 05:00N 53°40' W 143°14'2 1.9 997.3 9.2
2014-Nov-23 04:00N 53°40' W 143°17'0 0.0 996.7 9.2
2014-Nov-23 03:00N 53°40' W 143°17'2 1.6 996.0 9.2
2014-Nov-23 02:00N 53°41' W 143°19'1 0.5 995.1 9.2
2014-Nov-23 00:00N 53°41' W 143°17'0 0.0 993.6 9.2
2014-Nov-22 23:00N 53°41' W 143°17'2 2.4 993.0 9.2
2014-Nov-22 22:00N 53°40' W 143°20'0 0.0 992.4 9.2
2014-Nov-22 21:00N 53°40' W 143°20'3 3.4 992.2 9.2
2014-Nov-22 20:00N 53°38' W 143°16'0 0.3 991.9 9.2
2014-Nov-22 19:00N 53°38' W 143°16'4 4.0 991.7 9.2
2014-Nov-22 18:00N 53°35' W 143°10'0 0.0 991.4 9.2
2014-Nov-22 17:00N 53°35' W 143°10'0 0.0 991.0 9.2
2014-Nov-22 16:00N 53°35' W 143°10'4 3.7 990.8 9.2
2014-Nov-22 15:00N 53°38' W 143°15'1 1.2 990.5 9.2
2014-Nov-22 14:00N 53°39' W 143°15'0 0.0 990.3 9.2
2014-Nov-22 13:00N 53°39' W 143°15'1 1.2 990.0 9.2
2014-Nov-22 12:00N 53°38' W 143°17'0 0.0 989.6 9.2
2014-Nov-22 11:00N 53°38' W 143°17'0 0.0 989.2 9.2
2014-Nov-22 10:00N 53°38' W 143°17'0 0.2 988.5 9.2
2014-Nov-22 09:00N 53°39' W 143°17'0 0.1 988.0 9.2
2014-Nov-22 07:00N 53°38' W 143°17'0 0.0 986.7 9.2
2014-Nov-22 06:00N 53°38' W 143°17'0 0.0 986.1 9.2
2014-Nov-22 05:00N 53°38' W 143°17'1 0.7 985.4 9.3
2014-Nov-22 04:00N 53°39' W 143°16'0 0.1 984.9 9.3
2014-Nov-22 02:00N 53°39' W 143°16'2 2.0 984.4 9.3
2014-Nov-22 01:00N 53°38' W 143°19'1 0.7 984.5 9.3
2014-Nov-22 00:00N 53°38' W 143°19'0 0.4 984.0 9.3
2014-Nov-21 23:00N 53°38' W 143°19'0 0.0 984.5 9.3
2014-Nov-21 21:00N 53°38' W 143°19'1 1.4 984.7 9.3
2014-Nov-21 20:00N 53°37' W 143°20'0 0.0 984.9 9.3
2014-Nov-21 19:00N 53°37' W 143°20'0 0.1 984.7 9.3
2014-Nov-21 16:00N 53°37' W 143°20'0 0.0 984.3 9.3
2014-Nov-21 15:00N 53°37' W 143°20'0 0.0 984.3 9.3
2014-Nov-21 14:00N 53°37' W 143°20'1 0.7 984.3 9.3
2014-Nov-21 13:00N 53°38' W 143°20'0 0.0 984.3 9.3
2014-Nov-21 12:00N 53°38' W 143°20'2 1.9 984.6 9.3
2014-Nov-21 11:00N 53°36' W 143°22'0 0.0 984.3 9.3
2014-Nov-21 07:00N 53°36' W 143°22'1 0.7 983.5 9.4
2014-Nov-21 06:00N 53°37' W 143°22'1 1.2 983.3 9.4
2014-Nov-21 05:00N 53°37' W 143°20'1 0.6 983.2 9.4
2014-Nov-21 04:00N 53°38' W 143°20'2 1.6 982.8 9.4
2014-Nov-21 03:00N 53°39' W 143°22'0 0.0 982.7 9.4
2014-Nov-21 02:00N 53°39' W 143°22'1 0.6 981.9 9.4
2014-Nov-21 01:00N 53°38' W 143°22'1 0.7 981.1 9.4
2014-Nov-21 00:00N 53°38' W 143°22'2 1.9 981.0 9.4
2014-Nov-20 23:00N 53°36' W 143°23'0 0.0 982.4 9.4
2014-Nov-20 22:00N 53°36' W 143°23'0 0.2 984.5 9.4
2014-Nov-20 21:00N 53°36' W 143°23'0 0.1 986.6 9.4
2014-Nov-20 19:00N 53°36' W 143°23'0 0.0 990.0 9.4
2014-Nov-20 18:00N 53°36' W 143°23'0 0.0 991.4 9.5
2014-Nov-20 17:00N 53°36' W 143°23'0 0.0 993.0 9.5
2014-Nov-20 16:00N 53°36' W 143°23'0 0.0 994.9 9.5
2014-Nov-20 15:00N 53°36' W 143°23'1 1.3 996.1 9.5
2014-Nov-20 14:00N 53°35' W 143°22'1 1.1 997.5 9.5
2014-Nov-20 13:00N 53°35' W 143°24'3 1.3 999.1 9.5
2014-Nov-20 11:00N 53°32' W 143°22'0 0.0 1001.8 9.5
2014-Nov-20 09:00N 53°32' W 143°22'0 0.0 1004.3 9.5
2014-Nov-20 07:00N 53°32' W 143°22'0 0.4 1006.2 9.5
2014-Nov-20 06:00N 53°32' W 143°23'1 0.3 1006.8 9.5
2014-Nov-20 04:00N 53°33' W 143°22'1 0.9 1008.9 9.5
2014-Nov-20 03:00N 53°32' W 143°23'0 0.0 1009.2 9.5
2014-Nov-20 02:00N 53°32' W 143°23'3 2.8 1009.7 9.5
2014-Nov-20 01:00N 53°35' W 143°21'0 0.0 1009.9 9.5
2014-Nov-20 00:00N 53°35' W 143°21'3 2.6 1010.3 9.5
2014-Nov-19 23:00N 53°32' W 143°23'0 0.0 1010.2 9.5
2014-Nov-19 22:00N 53°32' W 143°23'1 1.3 1010.6 9.5
2014-Nov-19 21:00N 53°31' W 143°23'0 0.0 1010.8 9.5
2014-Nov-19 20:00N 53°31' W 143°23'0 0.0 1011.2 9.5
2014-Nov-19 19:00N 53°31' W 143°23'0 0.0 1011.3 9.5
2014-Nov-19 18:00N 53°31' W 143°23'0 0.0 1011.4 9.5
2014-Nov-19 17:00N 53°31' W 143°23'2 1.8 1011.5 9.5
2014-Nov-19 16:00N 53°31' W 143°20'0 0.0 1011.9 9.5
2014-Nov-19 15:00N 53°31' W 143°20'1 1.4 1012.1 9.5
2014-Nov-19 14:00N 53°31' W 143°23'1 0.9 1012.5 9.5
2014-Nov-19 13:00N 53°31' W 143°22'1 0.9 1012.6 9.5
2014-Nov-19 12:00N 53°31' W 143°23'0 0.2 1012.6 9.5
2014-Nov-19 11:00N 53°31' W 143°23'1 1.3 1012.7 9.5
2014-Nov-19 10:00N 53°32' W 143°24'0 0.0 1012.7 9.5
2014-Nov-19 09:00N 53°32' W 143°24'1 1.4 1012.6 9.5
2014-Nov-19 08:00N 53°31' W 143°25'1 0.6 1012.4 9.5
2014-Nov-19 06:00N 53°31' W 143°23'0 0.0 1011.3 9.5
2014-Nov-19 05:00N 53°31' W 143°23'0 0.0 1011.1 9.5
2014-Nov-19 04:00N 53°31' W 143°23'1 1.3 1010.3 9.5
2014-Nov-19 03:00N 53°29' W 143°24'1 1.4 1009.7 9.5
2014-Nov-19 02:00N 53°29' W 143°26'3 3.4 1008.7 9.5
2014-Nov-19 01:00N 53°31' W 143°22'0 0.0 1007.8 9.5
2014-Nov-19 00:00N 53°31' W 143°22'1 0.6 1006.8 9.5
2014-Nov-18 23:00N 53°31' W 143°22'   1005.4 9.6
Track history (hours):
 
Tides and Currents Weather Stations Pressure Air Temp Water Temp Dewpoint Dewpoint Depression Visibility Wind Speed Wind Dir Waves Ship Positions

Drifting buoy 46762

Last reported at 2014-Nov-28 23:00 UTC. Time now 2014-Nov-29 01:14 UTC.
Position N 53°35' W 143°17'.

Barometer 1022.8 mb
Water temperature 9.0 ° C

Date/timePositionNaut miles runAvg speedWind from/ knotsBaromVisibWave heightAir tempDewpointWater temp
2014-Nov-28 23:00N 53°35' W 143°17'0 0.0 1022.8 9.0
2014-Nov-28 22:00N 53°35' W 143°17'1 1.4 1023.1 9.0
2014-Nov-28 21:00N 53°37' W 143°16'1 0.7 1023.3 9.0
2014-Nov-28 20:00N 53°37' W 143°15'0 0.0 1023.3 9.0
2014-Nov-28 19:00N 53°37' W 143°15'1 0.7 1023.1 9.0
2014-Nov-28 18:00N 53°37' W 143°16'0 0.0 1022.7 9.0
2014-Nov-28 17:00N 53°37' W 143°16'0 0.0 1022.5 9.0
2014-Nov-28 16:00N 53°37' W 143°16'1 0.7 1022.2 9.0
2014-Nov-28 15:00N 53°37' W 143°17'1 1.1 1022.2 9.0
2014-Nov-28 14:00N 53°37' W 143°15'1 1.2 1021.9 9.0
2014-Nov-28 13:00N 53°36' W 143°15'0 0.0 1022.0 9.0
2014-Nov-28 12:00N 53°36' W 143°15'1 0.7 1022.1 9.0
2014-Nov-28 11:00N 53°36' W 143°16'1 0.7 1022.1 9.0
2014-Nov-28 10:00N 53°36' W 143°15'0 0.0 1021.9 9.0
2014-Nov-28 09:00N 53°36' W 143°15'0 0.0 1021.9 9.0
2014-Nov-28 08:00N 53°36' W 143°15'0 0.0 1021.6 9.0
2014-Nov-28 07:00N 53°36' W 143°15'0 0.0 1021.2 9.0
2014-Nov-28 06:00N 53°36' W 143°15'1 0.7 1021.1 9.0
2014-Nov-28 05:00N 53°37' W 143°14'0 0.0 1020.6 9.0
2014-Nov-28 04:00N 53°37' W 143°14'1 1.4 1020.2 9.0
2014-Nov-28 03:00N 53°38' W 143°16'0 0.0 1019.6 9.0
2014-Nov-28 02:00N 53°38' W 143°16'0 0.0 1019.4 9.0
2014-Nov-28 01:00N 53°38' W 143°16'0 0.0 1019.3 9.1
2014-Nov-28 00:00N 53°38' W 143°16'1 1.4 1019.0 9.1
2014-Nov-27 23:00N 53°38' W 143°13'0 0.0 1019.0 9.1
2014-Nov-27 22:00N 53°38' W 143°13'0 0.0 1019.1 9.1
2014-Nov-27 21:00N 53°38' W 143°13'1 0.7 1019.1 9.1
2014-Nov-27 20:00N 53°37' W 143°13'0 0.0 1019.3 9.1
2014-Nov-27 19:00N 53°37' W 143°13'0 0.0 1019.0 9.1
2014-Nov-27 18:00N 53°37' W 143°13'1 0.6 1018.5 9.1
2014-Nov-27 17:00N 53°38' W 143°13'0 0.4 1018.0 9.1
2014-Nov-27 16:00N 53°38' W 143°13'1 0.7 1017.7 9.1
2014-Nov-27 15:00N 53°38' W 143°12'1 0.7 1017.8 9.1
2014-Nov-27 14:00N 53°38' W 143°13'2 1.8 1017.6 9.1
2014-Nov-27 13:00N 53°40' W 143°13'0 0.0 1017.5 9.0
2014-Nov-27 12:00N 53°40' W 143°13'0 0.0 1017.7 9.0
2014-Nov-27 11:00N 53°40' W 143°13'0 0.0 1017.6 9.0
2014-Nov-27 10:00N 53°40' W 143°13'0 0.0 1017.9 9.0
2014-Nov-27 08:00N 53°40' W 143°13'0 0.4 1018.1 9.0
2014-Nov-27 07:00N 53°40' W 143°13'0 0.0 1018.1 9.0
2014-Nov-27 06:00N 53°40' W 143°13'0 0.0 1017.9 9.0
2014-Nov-27 05:00N 53°40' W 143°13'0 0.0 1018.2 9.0
2014-Nov-27 04:00N 53°40' W 143°13'1 1.2 1018.1 9.0
2014-Nov-27 03:00N 53°39' W 143°11'0 0.0 1018.4 9.0
2014-Nov-27 02:00N 53°39' W 143°11'1 0.7 1018.2 9.0
2014-Nov-27 01:00N 53°38' W 143°11'1 0.5 1018.0 9.0
2014-Nov-27 00:00N 53°38' W 143°12'0 0.4 1018.2 9.1
2014-Nov-26 23:00N 53°38' W 143°11'1 0.7 1018.5 9.1
2014-Nov-26 22:00N 53°39' W 143°11'0 0.0 1018.9 9.1
2014-Nov-26 21:00N 53°39' W 143°11'1 0.5 1019.6 9.1
2014-Nov-26 18:00N 53°40' W 143°10'0 0.0 1019.9 9.1
2014-Nov-26 17:00N 53°40' W 143°10'1 0.7 1019.8 9.1
2014-Nov-26 16:00N 53°40' W 143°11'1 0.7 1020.0 9.1
2014-Nov-26 15:00N 53°40' W 143°10'5 4.9 1020.3 9.1
2014-Nov-26 14:00N 53°38' W 143°17'0 0.0 1020.4 9.1
2014-Nov-26 13:00N 53°38' W 143°17'0 0.0 1020.9 9.1
2014-Nov-26 12:00N 53°38' W 143°17'0 0.1 1021.6 9.1
2014-Nov-26 10:00N 53°38' W 143°17'5 1.8 1022.4 9.1
2014-Nov-26 07:00N 53°40' W 143°08'1 0.7 1022.6 9.2
2014-Nov-26 06:00N 53°40' W 143°07'0 0.3 1022.8 9.2
2014-Nov-26 05:00N 53°40' W 143°08'1 0.7 1022.5 9.2
2014-Nov-26 04:00N 53°40' W 143°08'0 0.0 1022.5 9.2
2014-Nov-26 03:00N 53°40' W 143°08'1 0.7 1022.9 9.2
2014-Nov-26 02:00N 53°40' W 143°09'0 0.0 1022.8 9.2
2014-Nov-26 01:00N 53°40' W 143°09'0 0.4 1022.9 9.2
2014-Nov-26 00:00N 53°40' W 143°10'0 0.2 1022.4 9.2
2014-Nov-25 23:00N 53°40' W 143°10'1 1.4 1022.3 9.2
2014-Nov-25 22:00N 53°39' W 143°09'0 0.4 1022.3 9.2
2014-Nov-25 21:00N 53°39' W 143°08'1 0.5 1022.1 9.2
2014-Nov-25 20:00N 53°39' W 143°08'1 1.2 1022.3 9.2
2014-Nov-25 19:00N 53°39' W 143°07'0 0.0 1021.7 9.2
2014-Nov-25 18:00N 53°39' W 143°07'0 0.2 1021.2 9.2
2014-Nov-25 17:00N 53°39' W 143°07'1 1.5 1020.6 9.2
2014-Nov-25 16:00N 53°39' W 143°04'0 0.1 1020.0 9.2
2014-Nov-25 15:00N 53°39' W 143°04'4 3.6 1019.7 9.2
2014-Nov-25 14:00N 53°41' W 143°09'0 0.4 1019.0 9.2
2014-Nov-25 13:00N 53°41' W 143°10'2 1.8 1018.7 9.2
2014-Nov-25 12:00N 53°40' W 143°10'0 0.1 1018.3 9.2
2014-Nov-25 11:00N 53°40' W 143°09'0 0.0 1017.9 9.2
2014-Nov-25 10:00N 53°40' W 143°09'0 0.0 1017.7 9.2
2014-Nov-25 07:00N 53°40' W 143°10'1 0.7 1016.7 9.2
2014-Nov-25 06:00N 53°39' W 143°09'1 0.6 1016.4 9.2
2014-Nov-25 05:00N 53°39' W 143°08'1 0.8 1015.8 9.2
2014-Nov-25 04:00N 53°40' W 143°08'8 7.8 1015.0 9.2
2014-Nov-25 03:00N 53°42' W 143°20'0 0.0 1014.7 9.2
2014-Nov-25 02:00N 53°42' W 143°20'0 0.0 1013.9 9.2
2014-Nov-25 01:00N 53°42' W 143°20'0 0.0 1013.2 9.2
2014-Nov-25 00:00N 53°42' W 143°20'0 0.0 1012.9 9.2
2014-Nov-24 23:00N 53°42' W 143°20'0 0.0 1012.9 9.2
2014-Nov-24 22:00N 53°42' W 143°20'0 0.0 1012.3 9.2
2014-Nov-24 21:00N 53°42' W 143°20'0 0.0 1012.0 9.2
2014-Nov-24 20:00N 53°42' W 143°20'5 4.8 1011.4 9.2
2014-Nov-24 19:00N 53°41' W 143°13'0 0.0 1010.9 9.2
2014-Nov-24 17:00N 53°41' W 143°13'0 0.4 1009.6 9.2
2014-Nov-24 16:00N 53°41' W 143°12'0 0.0 1008.6 9.2
2014-Nov-24 15:00N 53°41' W 143°12'1 0.7 1008.3 9.2
2014-Nov-24 14:00N 53°41' W 143°13'0 0.4 1008.2 9.2
2014-Nov-24 13:00N 53°41' W 143°13'1 1.3 1007.8 9.2
2014-Nov-24 12:00N 53°40' W 143°14'0 0.0 1007.7 9.2
2014-Nov-24 11:00N 53°40' W 143°14'0 0.0 1007.2 9.2
2014-Nov-24 10:00N 53°40' W 143°14'1 0.6 1006.9 9.2
2014-Nov-24 08:00N 53°41' W 143°13'0 0.0 1006.2 9.2
2014-Nov-24 07:00N 53°41' W 143°13'0 0.0 1005.8 9.2
2014-Nov-24 06:00N 53°41' W 143°13'0 0.2 1005.6 9.2
2014-Nov-24 05:00N 53°41' W 143°13'1 0.8 1005.2 9.2
2014-Nov-24 04:00N 53°41' W 143°14'0 0.4 1004.8 9.2
2014-Nov-24 03:00N 53°41' W 143°15'0 0.4 1004.3 9.2
2014-Nov-24 02:00N 53°41' W 143°16'0 0.0 1004.0 9.2
2014-Nov-24 01:00N 53°41' W 143°16'1 0.6 1003.4 9.2
2014-Nov-24 00:00N 53°41' W 143°16'1 1.3 1003.2 9.2
2014-Nov-23 23:00N 53°40' W 143°15'1 0.7 1003.2 9.2
2014-Nov-23 22:00N 53°40' W 143°14'1 1.2 1003.2 9.2
2014-Nov-23 21:00N 53°41' W 143°14'0 0.0 1003.3 9.2
2014-Nov-23 20:00N 53°41' W 143°14'0 0.4 1003.2 9.2
2014-Nov-23 19:00N 53°41' W 143°15'1 0.3 1002.9 9.2
2014-Nov-23 17:00N 53°41' W 143°16'0 0.0 1002.5 9.2
2014-Nov-23 16:00N 53°41' W 143°16'1 0.7 1002.2 9.2
2014-Nov-23 15:00N 53°41' W 143°16'2 1.9 1002.1 9.2
2014-Nov-23 14:00N 53°40' W 143°19'0 0.0 1002.0 9.2
2014-Nov-23 13:00N 53°40' W 143°19'0 0.0 1001.8 9.2
2014-Nov-23 12:00N 53°40' W 143°19'1 1.4 1001.6 9.2
2014-Nov-23 11:00N 53°39' W 143°17'1 1.4 1001.1 9.2
2014-Nov-23 10:00N 53°40' W 143°19'1 0.7 1000.7 9.2
2014-Nov-23 08:00N 53°39' W 143°17'2 0.9 999.4 9.2
2014-Nov-23 06:00N 53°39' W 143°14'1 1.3 997.9 9.2
2014-Nov-23 05:00N 53°40' W 143°14'2 1.9 997.3 9.2
2014-Nov-23 04:00N 53°40' W 143°17'0 0.0 996.7 9.2
2014-Nov-23 03:00N 53°40' W 143°17'2 1.6 996.0 9.2
2014-Nov-23 02:00N 53°41' W 143°19'1 0.5 995.1 9.2
2014-Nov-23 00:00N 53°41' W 143°17'0 0.0 993.6 9.2
2014-Nov-22 23:00N 53°41' W 143°17'2 2.4 993.0 9.2
2014-Nov-22 22:00N 53°40' W 143°20'0 0.0 992.4 9.2
2014-Nov-22 21:00N 53°40' W 143°20'3 3.4 992.2 9.2
2014-Nov-22 20:00N 53°38' W 143°16'0 0.3 991.9 9.2
2014-Nov-22 19:00N 53°38' W 143°16'4 4.0 991.7 9.2
2014-Nov-22 18:00N 53°35' W 143°10'0 0.0 991.4 9.2
2014-Nov-22 17:00N 53°35' W 143°10'0 0.0 991.0 9.2
2014-Nov-22 16:00N 53°35' W 143°10'4 3.7 990.8 9.2
2014-Nov-22 15:00N 53°38' W 143°15'1 1.2 990.5 9.2
2014-Nov-22 14:00N 53°39' W 143°15'0 0.0 990.3 9.2
2014-Nov-22 13:00N 53°39' W 143°15'1 1.2 990.0 9.2
2014-Nov-22 12:00N 53°38' W 143°17'0 0.0 989.6 9.2
2014-Nov-22 11:00N 53°38' W 143°17'0 0.0 989.2 9.2
2014-Nov-22 10:00N 53°38' W 143°17'0 0.2 988.5 9.2
2014-Nov-22 09:00N 53°39' W 143°17'0 0.1 988.0 9.2
2014-Nov-22 07:00N 53°38' W 143°17'0 0.0 986.7 9.2
2014-Nov-22 06:00N 53°38' W 143°17'0 0.0 986.1 9.2
2014-Nov-22 05:00N 53°38' W 143°17'1 0.7 985.4 9.3
2014-Nov-22 04:00N 53°39' W 143°16'0 0.1 984.9 9.3
2014-Nov-22 02:00N 53°39' W 143°16'2 2.0 984.4 9.3
2014-Nov-22 01:00N 53°38' W 143°19'1 0.7 984.5 9.3
2014-Nov-22 00:00N 53°38' W 143°19'0 0.4 984.0 9.3
2014-Nov-21 23:00N 53°38' W 143°19'0 0.0 984.5 9.3
2014-Nov-21 21:00N 53°38' W 143°19'1 1.4 984.7 9.3
2014-Nov-21 20:00N 53°37' W 143°20'0 0.0 984.9 9.3
2014-Nov-21 19:00N 53°37' W 143°20'0 0.1 984.7 9.3
2014-Nov-21 16:00N 53°37' W 143°20'0 0.0 984.3 9.3
2014-Nov-21 15:00N 53°37' W 143°20'0 0.0 984.3 9.3
2014-Nov-21 14:00N 53°37' W 143°20'1 0.7 984.3 9.3
2014-Nov-21 13:00N 53°38' W 143°20'0 0.0 984.3 9.3
2014-Nov-21 12:00N 53°38' W 143°20'2 1.9 984.6 9.3
2014-Nov-21 11:00N 53°36' W 143°22'0 0.0 984.3 9.3
2014-Nov-21 07:00N 53°36' W 143°22'1 0.7 983.5 9.4
2014-Nov-21 06:00N 53°37' W 143°22'1 1.2 983.3 9.4
2014-Nov-21 05:00N 53°37' W 143°20'1 0.6 983.2 9.4
2014-Nov-21 04:00N 53°38' W 143°20'2 1.6 982.8 9.4
2014-Nov-21 03:00N 53°39' W 143°22'0 0.0 982.7 9.4
2014-Nov-21 02:00N 53°39' W 143°22'1 0.6 981.9 9.4
2014-Nov-21 01:00N 53°38' W 143°22'1 0.7 981.1 9.4
2014-Nov-21 00:00N 53°38' W 143°22'2 1.9 981.0 9.4
2014-Nov-20 23:00N 53°36' W 143°23'0 0.0 982.4 9.4
2014-Nov-20 22:00N 53°36' W 143°23'0 0.2 984.5 9.4
2014-Nov-20 21:00N 53°36' W 143°23'0 0.1 986.6 9.4
2014-Nov-20 19:00N 53°36' W 143°23'0 0.0 990.0 9.4
2014-Nov-20 18:00N 53°36' W 143°23'0 0.0 991.4 9.5
2014-Nov-20 17:00N 53°36' W 143°23'0 0.0 993.0 9.5
2014-Nov-20 16:00N 53°36' W 143°23'0 0.0 994.9 9.5
2014-Nov-20 15:00N 53°36' W 143°23'1 1.3 996.1 9.5
2014-Nov-20 14:00N 53°35' W 143°22'1 1.1 997.5 9.5
2014-Nov-20 13:00N 53°35' W 143°24'3 1.3 999.1 9.5
2014-Nov-20 11:00N 53°32' W 143°22'0 0.0 1001.8 9.5
2014-Nov-20 09:00N 53°32' W 143°22'0 0.0 1004.3 9.5
2014-Nov-20 07:00N 53°32' W 143°22'0 0.4 1006.2 9.5
2014-Nov-20 06:00N 53°32' W 143°23'1 0.3 1006.8 9.5
2014-Nov-20 04:00N 53°33' W 143°22'1 0.9 1008.9 9.5
2014-Nov-20 03:00N 53°32' W 143°23'0 0.0 1009.2 9.5
2014-Nov-20 02:00N 53°32' W 143°23'3 2.8 1009.7 9.5
2014-Nov-20 01:00N 53°35' W 143°21'0 0.0 1009.9 9.5
2014-Nov-20 00:00N 53°35' W 143°21'3 2.6 1010.3 9.5
2014-Nov-19 23:00N 53°32' W 143°23'0 0.0 1010.2 9.5
2014-Nov-19 22:00N 53°32' W 143°23'1 1.3 1010.6 9.5
2014-Nov-19 21:00N 53°31' W 143°23'0 0.0 1010.8 9.5
2014-Nov-19 20:00N 53°31' W 143°23'0 0.0 1011.2 9.5
2014-Nov-19 19:00N 53°31' W 143°23'0 0.0 1011.3 9.5
2014-Nov-19 18:00N 53°31' W 143°23'0 0.0 1011.4 9.5
2014-Nov-19 17:00N 53°31' W 143°23'2 1.8 1011.5 9.5
2014-Nov-19 16:00N 53°31' W 143°20'0 0.0 1011.9 9.5
2014-Nov-19 15:00N 53°31' W 143°20'1 1.4 1012.1 9.5
2014-Nov-19 14:00N 53°31' W 143°23'1 0.9 1012.5 9.5
2014-Nov-19 13:00N 53°31' W 143°22'1 0.9 1012.6 9.5
2014-Nov-19 12:00N 53°31' W 143°23'0 0.2 1012.6 9.5
2014-Nov-19 11:00N 53°31' W 143°23'1 1.3 1012.7 9.5
2014-Nov-19 10:00N 53°32' W 143°24'0 0.0 1012.7 9.5
2014-Nov-19 09:00N 53°32' W 143°24'1 1.4 1012.6 9.5
2014-Nov-19 08:00N 53°31' W 143°25'1 0.6 1012.4 9.5
2014-Nov-19 06:00N 53°31' W 143°23'0 0.0 1011.3 9.5
2014-Nov-19 05:00N 53°31' W 143°23'0 0.0 1011.1 9.5
2014-Nov-19 04:00N 53°31' W 143°23'1 1.3 1010.3 9.5
2014-Nov-19 03:00N 53°29' W 143°24'1 1.4 1009.7 9.5
2014-Nov-19 02:00N 53°29' W 143°26'3 3.4 1008.7 9.5
2014-Nov-19 01:00N 53°31' W 143°22'0 0.0 1007.8 9.5
2014-Nov-19 00:00N 53°31' W 143°22'1 0.6 1006.8 9.5
2014-Nov-18 23:00N 53°31' W 143°22'   1005.4 9.6

Dump ship's entire track history